Kimper, KY (41539)

08:24 AM EDT em 23 de Outubro de 2014 (GMT -0400)
East Kentucky Broadcasting | Change Station
CLOSE
Current Station
Estação Meteorológica Particular
Location: Pikeville, KY
Altitude: 686 ft
Estações Meteorológicas Próximas

Elev 686 ft 37.48 °N, 82.52 °W | Updated 10 seconds ago

Céu Encoberto
Céu Encoberto
46.8 °F
Aparente 47 °F
N
1.6
Vento Variável Vento de ONO
Gusts 1.6 mph

Hoje
Máxima -- | Mínima -- °F
--% Possibilidade de Precip.
Ontem
Máxima -- | Mínima -- °F
Precip. -- pol
7:45 AM 6:41 PM
Quarto minguante, 0% visible
Pressão 30.22 pol
Visibilidade 5.0 milhas
Nuvens Céu Encoberto 3300 ft
Sensação Térmica 47 °F
Ponto de Orvalho 42 °F
Humidade 85%
Chuva 0.00 pol
Altura de Neve Não disponível
UV 0 em vez de 12
Pólen .90 em vez de 12
Qualidade do Ar Não disponível
Flu Activity Sporadic
METAR KSJS 231215Z AUTO 00000KT 5SM BR OVC033 08/06 A3022 RMK AO2 T00750056

More Conditions Fewer Conditions

Pressão 30.22 pol
Visibilidade 5.0 milhas
Nuvens Céu Encoberto 3300 ft
Sensação Térmica 47 °F
Ponto de Orvalho 42 °F
Humidade 85%
Chuva 0.00 pol
Altura de Neve Não disponível
UV 0 em vez de 12
Pólen .90 em vez de 12
Qualidade do Ar Não disponível
Flu Activity Sporadic
METAR KSJS 231215Z AUTO 00000KT 5SM BR OVC033 08/06 A3022 RMK AO2 T00750056

More Conditions Fewer Conditions

10-Day Weather Forecast

Almanac

Astronomia

Oct. 23, 2014 Nascer Pôr
Hora atual 07:45 EDT 18:41 EDT
Crepúsculo civil 07:18 EDT 19:08 EDT
Crepúsculo náutico 06:47 EDT 19:38 EDT
Crepúsculo astronómico 06:17 EDT 20:08 EDT
Lua 07:23 EDT 18:42 EDT
Comprimento da luz visível 11h 49m
Duração do Dia
10h 56m
Tomorrow will be 2m 14s shorter.
Quarto minguante, 0% of the Moon is Illuminated
Hoje
Quarto minguante
Out 23
Nova
Out 30
Quarto crescente
Nov 6
Lua cheia
Nov 14
Quarto minguante

Extremos de Hoje

situação na parte mais alta situação na parte mais baixa

Community

WunderPhotos

Upload Photos

1,764,211 fotografias inseridas!

WunderBlogs® & News

Nearby

Altura da Neve

Estação altura Altitude
Não há relatos de neve recente.

Actividade Sísmisca

Cidade Distância Mag. Hora & Data
Não há notícias de atividade sísmica recente perto de si.
Mínima magnitude apresentada é 2.5.

Temperaturas das Águas Costeiras

Local Temperatura
Não há estações a reportar dados

Estações Meteorológicas Próximas